Time;durP1;ratioP1;P1;durP2;ratioP2;P2;SDS_P1;SDS_P2;PMS_P1;PMS_P2;Temp;Humidity;BMP_temperature;BMP_pressure;BME280_temperature;BME280_humidity;BME280_pressure;Samples;Min_cycle;Max_cycle;Signal;HPM_P1;HPM_P2
2023/03/03 00:02:36;;;;;;;493.02;34.67;;;2.10;99.90;;;;;;6042765;23;20018;-83
2023/03/03 00:05:17;;;;;;;116.32;23.58;;;2.20;99.90;;;;;;6041814;23;20790;-84
2023/03/03 00:08:04;;;;;;;201.77;24.98;;;2.20;99.90;;;;;;6039000;23;20027;-84
2023/03/03 00:10:54;;;;;;;441.55;33.35;;;2.70;99.90;;;;;;6013908;23;20023;-82
2023/03/03 00:16:56;;;;;;;290.13;27.15;;;2.60;99.90;;;;;;5982614;23;20061;-83
2023/03/03 00:19:56;;;;;;;483.27;30.65;;;2.60;99.90;;;;;;6007041;23;20047;-82
2023/03/03 00:26:26;;;;;;;328.42;25.38;;;2.30;99.90;;;;;;6013762;23;20024;-82
2023/03/03 00:29:37;;;;;;;;;;;;;;;;;;;;;
2023/03/03 00:32:45;;;;;;;183.85;23.23;;;2.00;99.90;;;;;;5999732;23;20059;-81
2023/03/03 00:35:52;;;;;;;306.70;23.40;;;2.50;99.90;;;;;;6004686;23;20023;-82
2023/03/03 00:38:36;;;;;;;479.20;28.50;;;2.10;99.90;;;;;;6003029;23;20344;-82
2023/03/03 00:41:27;;;;;;;210.68;22.60;;;2.40;99.90;;;;;;6004254;23;20023;-80
2023/03/03 00:44:33;;;;;;;481.48;23.88;;;1.80;99.90;;;;;;5981510;23;20015;-81
2023/03/03 00:47:27;;;;;;;427.15;22.80;;;2.00;99.90;;;;;;5978651;24;20060;-82
2023/03/03 00:50:09;;;;;;;458.48;22.55;;;1.70;99.90;;;;;;5975079;24;20020;-81
2023/03/03 00:52:51;;;;;;;370.77;20.67;;;1.90;99.90;;;;;;5984222;23;20019;-82
2023/03/03 00:55:43;;;;;;;499.55;21.33;;;1.80;99.90;;;;;;5962925;23;20024;-82
2023/03/03 00:58:15;;;;;;;517.05;20.58;;;1.70;99.90;;;;;;5981671;23;20024;-81
2023/03/03 01:00:55;;;;;;;442.13;19.55;;;1.00;99.90;;;;;;6007636;23;20015;-81
2023/03/03 01:03:33;;;;;;;397.00;19.80;;;1.00;99.90;;;;;;6008152;23;20022;-80
2023/03/03 01:06:08;;;;;;;416.73;20.27;;;1.10;99.90;;;;;;5985796;23;20472;-82
2023/03/03 01:08:37;;;;;;;321.13;18.23;;;0.80;99.90;;;;;;5983401;23;20517;-83
2023/03/03 01:11:09;;;;;;;220.48;15.30;;;1.30;99.90;;;;;;5984947;23;20421;-82
2023/03/03 01:13:49;;;;;;;257.35;15.68;;;1.30;99.90;;;;;;5986597;23;20019;-82
2023/03/03 01:16:26;;;;;;;292.95;16.40;;;1.30;99.90;;;;;;5981289;23;20054;-82
2023/03/03 01:18:58;;;;;;;195.90;15.50;;;0.60;99.90;;;;;;6005851;23;20023;-81
2023/03/03 01:21:29;;;;;;;260.83;16.35;;;0.90;99.90;;;;;;5990533;23;20027;-82
2023/03/03 01:23:55;;;;;;;240.52;16.55;;;0.70;99.90;;;;;;6128262;23;20052;-81
2023/03/03 01:26:37;;;;;;;340.45;18.45;;;0.60;99.90;;;;;;6128723;23;20013;-81
2023/03/03 01:29:16;;;;;;;228.25;17.23;;;0.60;99.90;;;;;;6130410;23;20013;-81
2023/03/03 01:31:51;;;;;;;308.08;18.50;;;0.80;99.90;;;;;;6129632;23;20362;-82
2023/03/03 01:34:27;;;;;;;176.15;15.07;;;0.80;99.90;;;;;;6130051;23;20032;-82
2023/03/03 01:36:55;;;;;;;;;;;1.40;99.90;;;;;;6129431;23;20578;-81
2023/03/03 01:39:33;;;;;;;207.55;16.98;;;0.90;99.90;;;;;;6130804;23;19958;-82
2023/03/03 01:42:03;;;;;;;218.98;16.42;;;1.00;99.90;;;;;;6129482;23;20405;-82
2023/03/03 01:44:31;;;;;;;197.02;16.95;;;1.50;99.90;;;;;;6130868;23;20108;-82
2023/03/03 01:47:25;;;;;;;311.02;18.30;;;1.40;99.90;;;;;;6129160;23;20068;-81
2023/03/03 01:49:58;;;;;;;310.80;16.02;;;1.30;99.90;;;;;;6125646;23;20072;-80
2023/03/03 01:52:47;;;;;;;340.95;17.00;;;1.10;99.90;;;;;;6130001;23;20074;-81
2023/03/03 01:55:24;;;;;;;211.98;14.00;;;1.30;99.90;;;;;;6153067;23;20089;-82
2023/03/03 01:58:20;;;;;;;328.08;14.05;;;1.30;99.90;;;;;;6127818;23;20028;-81
2023/03/03 02:00:58;;;;;;;240.27;14.70;;;1.10;99.90;;;;;;6116061;23;20458;-81
2023/03/03 02:03:30;;;;;;;289.88;13.07;;;1.00;99.90;;;;;;6069602;23;20022;-81
2023/03/03 02:06:08;;;;;;;171.45;12.38;;;0.90;99.90;;;;;;6068703;23;20021;-80
2023/03/03 02:08:55;;;;;;;334.02;13.15;;;0.50;99.90;;;;;;6068869;23;20032;-82
2023/03/03 02:11:31;;;;;;;147.02;11.32;;;0.80;99.90;;;;;;6116354;23;20046;-81
2023/03/03 02:13:56;;;;;;;134.85;11.50;;;0.40;99.90;;;;;;6067555;23;20018;-81
2023/03/03 02:16:35;;;;;;;213.35;11.48;;;0.10;99.90;;;;;;6071646;23;20457;-82
2023/03/03 02:19:39;;;;;;;233.18;11.52;;;-0.10;99.90;;;;;;6099962;23;20026;-82
2023/03/03 02:22:08;;;;;;;125.32;10.52;;;0.00;99.90;;;;;;6072549;23;20049;-82
2023/03/03 02:24:52;;;;;;;147.27;10.30;;;-0.20;99.90;;;;;;6072483;23;20014;-83
2023/03/03 02:27:23;;;;;;;270.13;11.63;;;0.40;99.90;;;;;;6118266;23;20010;-82
2023/03/03 02:30:12;;;;;;;107.07;9.88;;;0.40;99.90;;;;;;6068904;23;20010;-81
2023/03/03 02:32:42;;;;;;;182.93;11.02;;;-0.30;99.90;;;;;;6125072;23;20096;-82
2023/03/03 02:35:35;;;;;;;189.65;10.20;;;0.30;99.90;;;;;;6128063;23;20024;-82
2023/03/03 02:38:33;;;;;;;127.35;9.75;;;-0.50;99.90;;;;;;6126586;23;20453;-82
2023/03/03 02:41:17;;;;;;;163.65;9.80;;;0.20;99.90;;;;;;6154783;23;20206;-80
2023/03/03 02:44:24;;;;;;;158.82;9.40;;;0.30;99.90;;;;;;6125454;23;20017;-82
2023/03/03 02:47:10;;;;;;;91.80;9.13;;;-0.20;99.90;;;;;;6129252;23;20476;-81
2023/03/03 02:50:00;;;;;;;131.95;9.27;;;-0.30;99.90;;;;;;6060065;23;20070;-82
2023/03/03 02:52:55;;;;;;;165.30;9.75;;;0.20;99.90;;;;;;6010255;23;20777;-82
2023/03/03 02:55:53;;;;;;;89.47;9.00;;;-0.20;99.90;;;;;;6011362;23;20049;-81
2023/03/03 03:01:53;;;;;;;40.58;7.65;;;-0.60;99.90;;;;;;6024758;23;20137;-82
2023/03/03 03:04:57;;;;;;;26.48;8.05;;;-0.10;99.90;;;;;;6014070;23;20062;-80
2023/03/03 03:08:03;;;;;;;53.30;9.25;;;-0.30;99.90;;;;;;6010191;23;20050;-82
2023/03/03 03:10:57;;;;;;;95.13;8.80;;;-0.10;99.90;;;;;;5977826;23;20011;-82
2023/03/03 03:13:55;;;;;;;52.13;8.77;;;0.00;99.90;;;;;;6002638;23;20020;-81
2023/03/03 03:16:57;;;;;;;19.33;8.30;;;-0.90;99.90;;;;;;5972640;23;20420;-82
2023/03/03 03:20:40;;;;;;;23.83;8.65;;;-0.40;99.90;;;;;;5977154;23;20465;-81
2023/03/03 03:23:46;;;;;;;50.17;9.18;;;-0.80;99.90;;;;;;5872684;24;20340;-81
2023/03/03 03:27:11;;;;;;;17.05;8.30;;;-0.90;99.90;;;;;;5921926;24;20020;-81
2023/03/03 03:30:00;;;;;;;18.90;8.20;;;-0.20;99.90;;;;;;5920001;24;20088;-82
2023/03/03 03:33:07;;;;;;;34.83;8.15;;;-1.00;99.90;;;;;;5895677;24;20462;-82
2023/03/03 03:36:03;;;;;;;31.40;8.85;;;-1.00;99.90;;;;;;5876642;24;20021;-82
2023/03/03 03:38:58;;;;;;;26.45;9.65;;;-0.20;99.90;;;;;;5890118;24;20017;-82
2023/03/03 03:41:53;;;;;;;28.60;9.52;;;-1.10;99.90;;;;;;5864846;24;20033;-81
2023/03/03 03:45:01;;;;;;;15.15;8.70;;;-1.10;99.90;;;;;;5900584;24;20155;-82
2023/03/03 03:47:57;;;;;;;21.20;9.15;;;-0.50;99.90;;;;;;5924018;24;20021;-81
2023/03/03 03:51:04;;;;;;;21.67;9.50;;;-1.30;99.90;;;;;;5883879;24;20013;-82
2023/03/03 03:54:02;;;;;;;20.30;8.25;;;-0.80;99.90;;;;;;5879850;24;20057;-81
2023/03/03 03:57:09;;;;;;;18.80;8.90;;;-0.80;99.90;;;;;;5912670;24;20106;-82
2023/03/03 04:00:34;;;;;;;21.58;8.75;;;-0.60;99.90;;;;;;5974656;24;20012;-82
2023/03/03 04:04:10;;;;;;;28.25;9.40;;;-1.40;99.90;;;;;;5946166;24;20036;-81
2023/03/03 04:11:02;;;;;;;20.52;10.48;;;-0.80;99.90;;;;;;5971859;23;20457;-81
2023/03/03 04:14:34;;;;;;;20.70;10.25;;;-1.10;99.90;;;;;;5946995;24;20024;-82
2023/03/03 04:18:21;;;;;;;;;;;;;;;;;;;;;
2023/03/03 04:21:13;;;;;;;30.48;12.75;;;-1.50;99.90;;;;;;5912988;24;20054;-81
2023/03/03 04:23:58;;;;;;;40.47;14.02;;;-1.30;99.90;;;;;;5897188;24;20023;-82
2023/03/03 04:26:56;;;;;;;34.22;14.20;;;-0.80;99.90;;;;;;5893725;24;20112;-82
2023/03/03 04:32:52;;;;;;;27.10;11.93;;;-1.40;99.90;;;;;;5948022;24;20057;-82
2023/03/03 04:35:29;;;;;;;22.65;10.85;;;-0.90;99.90;;;;;;5920934;24;20008;-81
2023/03/03 04:38:32;;;;;;;21.10;10.77;;;-1.60;99.90;;;;;;5919012;24;20170;-82
2023/03/03 04:41:39;;;;;;;23.83;10.98;;;-1.60;99.90;;;;;;5889686;24;20342;-82
2023/03/03 04:44:55;;;;;;;29.52;11.80;;;-1.50;99.90;;;;;;5840775;24;20044;-82
2023/03/03 04:48:02;;;;;;;19.70;11.05;;;-1.50;99.90;;;;;;5876947;24;20009;-81
2023/03/03 04:54:08;;;;;;;18.25;9.85;;;-1.50;99.90;;;;;;5862052;24;20021;-82
2023/03/03 04:57:00;;;;;;;17.17;9.63;;;-1.80;99.90;;;;;;5867769;24;20427;-82
2023/03/03 04:59:38;;;;;;;16.63;9.32;;;-1.70;99.90;;;;;;5841080;24;20077;-82
2023/03/03 05:05:48;;;;;;;15.55;8.85;;;-1.00;99.90;;;;;;5864779;24;20137;-82
2023/03/03 05:08:35;;;;;;;14.48;8.98;;;-1.70;99.90;;;;;;5861258;24;20022;-82
2023/03/03 05:11:08;;;;;;;15.20;9.40;;;-1.80;99.90;;;;;;5840366;24;20025;-81
2023/03/03 05:13:52;;;;;;;17.88;10.07;;;-1.70;99.90;;;;;;5840952;24;20014;-82
2023/03/03 05:16:59;;;;;;;16.83;10.07;;;-1.60;99.90;;;;;;5819460;24;20026;-82
2023/03/03 05:19:35;;;;;;;15.57;9.55;;;-1.60;99.90;;;;;;5923847;24;20020;-82
2023/03/03 05:22:38;;;;;;;;;;;;;;;;;;;;;
2023/03/03 05:25:48;;;;;;;13.25;8.70;;;-1.50;99.90;;;;;;5896868;24;20064;-82
2023/03/03 05:28:54;;;;;;;16.17;8.98;;;-1.60;99.90;;;;;;5942161;24;20047;-82
2023/03/03 05:31:59;;;;;;;14.52;8.68;;;-1.60;99.90;;;;;;5919370;24;20020;-82
2023/03/03 05:35:01;;;;;;;15.80;9.23;;;-1.50;99.90;;;;;;5925563;24;20176;-82
2023/03/03 05:37:48;;;;;;;14.40;9.70;;;-1.20;99.90;;;;;;5925951;24;20062;-81
2023/03/03 05:44:05;;;;;;;15.88;9.82;;;-1.70;99.90;;;;;;5919906;24;20104;-82
2023/03/03 05:49:52;;;;;;;15.88;9.38;;;-1.10;99.90;;;;;;5786381;24;20023;-82
2023/03/03 05:52:45;;;;;;;;;;;;;;;;;;;;;
2023/03/03 05:56:03;;;;;;;14.60;9.68;;;-1.10;99.90;;;;;;5783583;24;20094;-81
2023/03/03 05:58:38;;;;;;;15.73;10.30;;;-1.80;99.90;;;;;;5744878;24;20121;-81
2023/03/03 06:08:15;;;;;;;17.85;9.48;;;-1.10;99.90;;;;;;5802267;24;20026;-81
2023/03/03 06:11:06;;;;;;;14.98;9.73;;;-2.00;99.90;;;;;;5814108;24;20138;-82
2023/03/03 06:13:55;;;;;;;14.55;9.05;;;-1.50;99.90;;;;;;5839631;24;20015;-82
2023/03/03 06:20:22;;;;;;;14.13;9.60;;;-1.70;99.90;;;;;;5976332;24;20036;-81
2023/03/03 06:23:50;;;;;;;14.30;9.65;;;-1.70;99.90;;;;;;5943741;24;20456;-82
2023/03/03 06:27:00;;;;;;;16.17;10.00;;;-1.80;99.90;;;;;;5923223;24;20045;-82
2023/03/03 06:30:04;;;;;;;15.52;9.90;;;-1.40;99.90;;;;;;5872186;24;20021;-82
2023/03/03 06:33:14;;;;;;;18.13;10.43;;;-1.00;99.90;;;;;;5868514;24;20017;-81
2023/03/03 06:36:03;;;;;;;17.80;9.90;;;-1.20;99.90;;;;;;5894198;24;20021;-84
2023/03/03 06:38:31;;;;;;;14.82;9.35;;;-1.70;99.90;;;;;;5888315;24;20070;-81
2023/03/03 06:40:57;;;;;;;16.20;9.50;;;-1.30;99.90;;;;;;5889267;24;20464;-80
2023/03/03 06:43:23;;;;;;;15.18;9.90;;;-1.10;99.90;;;;;;5867189;24;20022;-80
2023/03/03 06:45:48;;;;;;;18.77;9.77;;;-1.60;99.90;;;;;;5889356;24;20018;-82
2023/03/03 06:48:14;;;;;;;18.55;10.00;;;-1.40;99.90;;;;;;5912752;24;20759;-81
2023/03/03 06:50:41;;;;;;;21.55;10.15;;;-1.40;99.90;;;;;;5941498;23;20297;-82
2023/03/03 06:53:11;;;;;;;17.42;10.00;;;-1.50;99.90;;;;;;5987055;23;20015;-82
2023/03/03 06:55:36;;;;;;;15.80;9.80;;;-1.40;99.90;;;;;;6061685;23;20955;-81
2023/03/03 06:58:09;;;;;;;15.48;10.45;;;-1.10;99.90;;;;;;6062025;23;20018;-81
2023/03/03 07:00:35;;;;;;;15.43;9.65;;;-0.80;99.90;;;;;;6105641;23;20045;-82
2023/03/03 07:03:10;;;;;;;15.63;10.32;;;-1.10;99.90;;;;;;6146777;23;20017;-81
2023/03/03 07:05:36;;;;;;;15.48;9.80;;;-0.90;99.90;;;;;;6148680;23;20010;-81
2023/03/03 07:08:06;;;;;;;14.20;9.75;;;-0.80;99.90;;;;;;6123487;23;20108;-81
2023/03/03 07:10:31;;;;;;;16.75;9.57;;;-1.20;99.90;;;;;;6120640;23;20010;-80
2023/03/03 07:13:17;;;;;;;17.50;10.50;;;-0.50;99.90;;;;;;6146684;23;20591;-81
2023/03/03 07:15:51;;;;;;;17.38;10.75;;;-0.60;99.90;;;;;;6149011;23;20014;-81
2023/03/03 07:18:24;;;;;;;17.58;10.63;;;-0.70;99.90;;;;;;6148928;23;20026;-81
2023/03/03 07:20:53;;;;;;;17.83;11.05;;;-0.40;99.90;;;;;;6122189;23;20438;-81
2023/03/03 07:24:26;;;;;;;;;;;;;;;;;;;;;
2023/03/03 07:27:22;;;;;;;16.65;11.13;;;0.00;99.90;;;;;;6061236;23;20027;-80
2023/03/03 07:30:21;;;;;;;18.88;11.43;;;0.20;99.90;;;;;;6038993;23;20015;-81
2023/03/03 07:32:59;;;;;;;16.27;10.60;;;0.10;99.90;;;;;;6014226;23;20138;-80
2023/03/03 07:39:57;;;;;;;22.67;11.95;;;0.60;99.90;;;;;;6060051;23;20027;-80
2023/03/03 07:43:01;;;;;;;18.75;11.18;;;0.20;99.90;;;;;;6012131;23;20590;-80
2023/03/03 07:46:04;;;;;;;19.92;13.15;;;0.10;99.90;;;;;;5985826;23;20054;-81
2023/03/03 07:53:25;;;;;;;;;;;;;;;;;;;;;
2023/03/03 07:55:58;;;;;;;17.90;11.15;;;0.50;99.90;;;;;;6024929;23;20023;-81
2023/03/03 07:59:38;;;;;;;17.67;10.57;;;1.00;99.90;;;;;;5981768;23;20062;-81
2023/03/03 08:05:50;;;;;;;19.55;10.68;;;1.10;99.90;;;;;;6034103;23;20062;-81
2023/03/03 08:08:41;;;;;;;18.98;10.52;;;1.00;99.90;;;;;;6007482;23;20057;-81
2023/03/03 08:11:47;;;;;;;17.92;10.00;;;0.80;99.90;;;;;;6006962;23;20026;-83
2023/03/03 08:14:46;;;;;;;19.95;10.57;;;0.70;99.90;;;;;;5945238;24;20021;-81
2023/03/03 08:18:03;;;;;;;;;;;;;;;;;;;;;
2023/03/03 08:21:15;;;;;;;15.18;10.20;;;1.30;99.90;;;;;;5924628;24;20140;-83
2023/03/03 08:24:57;;;;;;;12.85;9.15;;;1.00;99.90;;;;;;5876932;24;20037;-83
2023/03/03 08:35:58;;;;;;;;;;;;;;;;;;;;;
2023/03/03 08:39:12;;;;;;;14.00;9.35;;;1.90;99.90;;;;;;5895540;24;20056;-82
2023/03/03 08:42:56;;;;;;;14.02;9.63;;;1.60;99.90;;;;;;5869795;24;20155;-82
2023/03/03 08:59:37;;;;;;;17.90;10.07;;;2.10;99.90;;;;;;6205573;22;3494062;-83
2023/03/03 09:02:15;;;;;;;14.90;10.23;;;2.40;99.90;;;;;;6252201;22;20110;-82
2023/03/03 09:05:08;;;;;;;16.15;10.38;;;2.70;99.90;;;;;;6247663;23;20182;-82
2023/03/03 09:07:59;;;;;;;19.27;10.10;;;2.30;99.90;;;;;;6198815;23;20333;-83
2023/03/03 09:10:50;;;;;;;17.05;10.18;;;2.50;99.90;;;;;;6224686;23;20027;-83
2023/03/03 09:13:33;;;;;;;18.65;10.43;;;2.80;99.90;;;;;;6196690;23;20040;-83
2023/03/03 09:24:05;;;;;;;13.70;9.43;;;2.90;99.90;;;;;;6247566;23;20011;-82
2023/03/03 09:27:30;;;;;;;14.18;9.45;;;3.60;99.90;;;;;;6195620;23;20016;-83
2023/03/03 09:30:38;;;;;;;18.02;9.23;;;3.50;99.90;;;;;;6121828;23;20140;-82
2023/03/03 09:34:00;;;;;;;;;;;;;;;;;;;;;
2023/03/03 09:37:30;;;;;;;14.23;9.75;;;4.00;99.90;;;;;;6101035;23;20014;-83
2023/03/03 09:40:43;;;;;;;15.55;9.52;;;3.80;99.90;;;;;;6101775;23;20630;-83
2023/03/03 09:43:22;;;;;;;16.02;9.23;;;4.20;99.90;;;;;;6016507;23;20018;-83
2023/03/03 09:50:55;;;;;;;13.02;8.45;;;4.40;99.90;;;;;;6066096;23;20034;-83
2023/03/03 09:54:24;;;;;;;17.02;8.27;;;4.60;99.90;;;;;;6070621;23;20089;-84
2023/03/03 09:57:19;;;;;;;12.93;8.15;;;4.70;99.90;;;;;;5962250;23;20008;-84
2023/03/03 10:00:46;;;;;;;17.42;9.00;;;4.50;99.90;;;;;;5985552;23;20087;-84
2023/03/03 10:03:45;;;;;;;19.27;8.82;;;4.60;99.90;;;;;;5991957;23;20026;-85
2023/03/03 10:10:55;;;;;;;17.05;8.05;;;4.80;99.90;;;;;;6061863;23;20464;-84
2023/03/03 10:14:32;;;;;;;18.30;7.97;;;5.10;99.90;;;;;;5985276;23;20419;-84
2023/03/03 10:21:35;;;;;;;11.35;6.30;;;5.70;99.90;;;;;;6034882;23;20018;-84
2023/03/03 10:24:20;;;;;;;9.80;5.68;;;5.60;99.90;;;;;;6011070;23;20076;-82
2023/03/03 10:26:54;;;;;;;12.57;5.25;;;6.00;99.90;;;;;;6006474;23;20023;-82
2023/03/03 10:29:41;;;;;;;11.88;4.78;;;5.90;99.90;;;;;;5987173;23;20530;-83
2023/03/03 10:32:41;;;;;;;11.60;3.80;;;6.00;99.90;;;;;;6009478;23;20041;-83
2023/03/03 10:35:46;;;;;;;13.02;4.03;;;5.90;99.90;;;;;;6008737;23;20126;-84
2023/03/03 10:38:35;;;;;;;9.48;3.03;;;6.10;99.90;;;;;;5982668;23;20130;-85
2023/03/03 10:41:40;;;;;;;;;;;;;;;;;;;;;
2023/03/03 10:44:27;;;;;;;6.55;2.70;;;6.00;99.90;;;;;;6033887;23;20016;-85
2023/03/03 10:51:03;;;;;;;9.88;1.90;;;6.30;99.90;;;;;;6150242;23;20021;-83
2023/03/03 10:53:33;;;;;;;4.80;1.00;;;6.20;99.90;;;;;;6103164;23;20095;-84
2023/03/03 10:56:20;;;;;;;4.10;0.80;;;6.50;99.90;;;;;;6151512;23;20009;-85
2023/03/03 10:59:04;;;;;;;7.20;1.30;;;6.50;99.90;;;;;;6126589;23;20394;-88
2023/03/03 11:02:18;;;;;;;8.20;1.40;;;6.30;99.90;;;;;;6173238;23;20017;-86
2023/03/03 11:05:23;;;;;;;1.27;0.60;;;6.20;99.90;;;;;;6218182;22;20058;-87
2023/03/03 11:08:06;;;;;;;3.90;0.80;;;6.20;99.90;;;;;;6157001;22;20043;-88
2023/03/03 11:11:12;;;;;;;5.07;1.10;;;6.40;99.90;;;;;;6218524;22;20302;-84
2023/03/03 11:14:00;;;;;;;3.55;0.93;;;6.30;99.90;;;;;;6222849;22;20015;-86
2023/03/03 11:20:36;;;;;;;3.50;1.17;;;6.40;99.90;;;;;;6274616;22;20038;-85
2023/03/03 11:23:57;;;;;;;2.17;0.80;;;6.50;99.90;;;;;;6222146;22;20072;-85
2023/03/03 11:27:15;;;;;;;7.40;1.40;;;6.50;99.90;;;;;;6249275;22;20012;-85
2023/03/03 11:44:49;;;;;;;12.45;1.23;;;6.60;99.90;;;;;;6147147;23;20033;-83
2023/03/03 11:47:42;;;;;;;8.90;1.52;;;6.90;99.90;;;;;;6102077;23;20424;-85
2023/03/03 11:50:20;;;;;;;4.30;0.90;;;6.90;99.90;;;;;;6124150;23;20585;-84
2023/03/03 12:00:44;;;;;;;9.10;1.30;;;7.10;99.90;;;;;;6004531;23;20416;-85
2023/03/03 12:04:21;;;;;;;5.22;1.13;;;7.10;99.90;;;;;;5958935;23;20151;-83
2023/03/03 12:07:30;;;;;;;9.90;1.52;;;7.20;99.90;;;;;;5956365;23;20066;-84
2023/03/03 12:10:29;;;;;;;8.75;1.42;;;7.10;99.90;;;;;;6002455;23;20082;-84
2023/03/03 12:17:57;;;;;;;;;;;;;;;;;;;;;
2023/03/03 12:20:54;;;;;;;9.23;1.50;;;7.00;99.90;;;;;;5933044;24;20065;-83
2023/03/03 12:27:32;;;;;;;7.80;1.48;;;7.00;99.90;;;;;;5838415;24;20034;-84
2023/03/03 12:31:07;;;;;;;;;;;;;;;;;;;;;
2023/03/03 12:41:19;;;;;;;12.68;1.83;;;7.20;99.90;;;;;;5867012;24;20355;-89
2023/03/03 12:43:50;;;;;;;10.73;1.67;;;7.30;99.90;;;;;;5873304;24;20014;-86
2023/03/03 12:46:54;;;;;;;10.60;1.67;;;7.20;99.90;;;;;;5920461;24;20484;-85
2023/03/03 12:54:15;;;;;;;10.63;1.95;;;7.00;99.90;;;;;;5860765;24;20036;-88
2023/03/03 12:57:18;;;;;;;9.02;1.50;;;7.10;99.90;;;;;;5893924;24;20516;-89
2023/03/03 13:04:25;;;;;;;13.57;2.22;;;7.10;99.90;;;;;;5952849;24;20021;-86
2023/03/03 13:07:50;;;;;;;22.70;2.47;;;7.10;99.90;;;;;;5952807;24;20052;-87
2023/03/03 13:14:25;;;;;;;16.92;1.90;;;7.90;99.90;;;;;;5977103;24;20064;-88
2023/03/03 13:20:37;;;;;;;13.52;2.35;;;7.80;99.90;;;;;;5976176;24;20527;-87
2023/03/03 13:23:21;;;;;;;13.40;2.53;;;7.70;99.90;;;;;;5976033;24;20049;-89
2023/03/03 13:25:54;;;;;;;19.10;2.95;;;7.40;99.90;;;;;;5930707;24;20062;-86
2023/03/03 13:28:35;;;;;;;24.58;2.83;;;7.50;99.90;;;;;;6052293;23;20185;-87
2023/03/03 13:31:21;;;;;;;24.35;3.35;;;7.40;99.90;;;;;;6043103;23;20018;-85
2023/03/03 13:33:54;;;;;;;23.52;3.50;;;7.20;99.90;;;;;;6120742;23;20013;-88
2023/03/03 13:36:27;;;;;;;20.92;3.28;;;7.20;99.90;;;;;;6156466;23;20017;-85
2023/03/03 13:38:57;;;;;;;18.60;2.88;;;7.40;99.90;;;;;;6222292;23;20016;-85
2023/03/03 13:41:27;;;;;;;18.80;2.63;;;7.50;99.90;;;;;;6241825;23;20706;-87
2023/03/03 13:44:02;;;;;;;23.75;2.80;;;7.60;99.90;;;;;;6220674;23;20103;-87
2023/03/03 13:46:43;;;;;;;;;;;7.50;99.90;;;;;;6215862;23;20016;-85
2023/03/03 13:49:34;;;;;;;19.88;3.65;;;7.60;99.90;;;;;;6240588;23;19911;-88
2023/03/03 13:52:10;;;;;;;22.63;3.45;;;7.50;99.90;;;;;;6216719;23;20073;-90
2023/03/03 13:55:08;;;;;;;24.42;3.65;;;7.30;99.90;;;;;;6219306;23;20012;-88
2023/03/03 13:57:34;;;;;;;31.10;3.92;;;7.30;99.90;;;;;;6196007;23;20055;-88
2023/03/03 14:00:23;;;;;;;27.17;3.65;;;7.30;99.90;;;;;;6227165;22;20016;-86
2023/03/03 14:03:01;;;;;;;34.00;3.63;;;7.20;99.90;;;;;;6228203;22;20015;-89
2023/03/03 14:05:43;;;;;;;27.60;3.95;;;7.10;99.90;;;;;;6230674;22;20431;-87
2023/03/03 14:08:15;;;;;;;29.23;3.70;;;7.00;99.90;;;;;;6232357;22;20016;-89
2023/03/03 14:11:04;;;;;;;25.35;3.65;;;7.30;99.90;;;;;;6222576;22;20055;-90
2023/03/03 14:13:55;;;;;;;23.83;3.40;;;7.30;99.90;;;;;;6248911;22;20316;-91
2023/03/03 14:16:46;;;;;;;27.05;4.50;;;7.10;99.90;;;;;;6247405;22;20061;-88
2023/03/03 14:23:01;;;;;;;24.80;3.83;;;6.80;99.90;;;;;;6274805;22;20076;-87
2023/03/03 14:25:49;;;;;;;27.23;4.05;;;6.80;99.90;;;;;;6248159;22;20019;-86
2023/03/03 14:28:19;;;;;;;23.83;3.70;;;6.90;99.90;;;;;;6222410;22;20066;-87
2023/03/03 14:34:57;;;;;;;28.05;3.60;;;7.00;99.90;;;;;;6248632;22;20030;-88
2023/03/03 14:37:45;;;;;;;24.58;3.72;;;7.00;99.90;;;;;;6221669;22;20047;-87
2023/03/03 14:40:28;;;;;;;23.02;3.45;;;6.80;99.90;;;;;;6220967;22;20019;-87
2023/03/03 14:42:56;;;;;;;27.98;3.50;;;6.70;99.90;;;;;;6248758;22;20054;-86
2023/03/03 14:45:37;;;;;;;24.65;3.42;;;6.90;99.90;;;;;;6222353;22;20008;-87
2023/03/03 14:48:15;;;;;;;28.08;3.70;;;6.90;99.90;;;;;;6219970;22;20023;-86
2023/03/03 14:50:47;;;;;;;28.55;4.88;;;6.90;99.90;;;;;;6217027;22;20073;-87
2023/03/03 14:53:18;;;;;;;31.13;4.38;;;7.00;99.90;;;;;;6247310;22;20019;-85
2023/03/03 14:55:52;;;;;;;26.30;3.38;;;6.80;99.90;;;;;;6221332;22;20015;-86
2023/03/03 14:58:41;;;;;;;28.20;4.10;;;6.80;99.90;;;;;;6244503;22;20065;-89
2023/03/03 15:01:12;;;;;;;28.45;3.97;;;6.70;99.90;;;;;;6221017;22;20012;-86
2023/03/03 15:03:46;;;;;;;28.38;3.55;;;6.70;99.90;;;;;;6251603;22;20016;-88
2023/03/03 15:06:28;;;;;;;36.55;4.45;;;6.70;99.90;;;;;;6225596;22;20020;-86
2023/03/03 15:08:54;;;;;;;28.73;3.88;;;6.60;99.90;;;;;;6249206;22;20305;-87
2023/03/03 15:11:27;;;;;;;32.50;4.43;;;6.70;99.90;;;;;;6223130;22;20015;-84
2023/03/03 15:14:03;;;;;;;35.42;4.20;;;6.60;99.90;;;;;;6222658;22;20031;-87
2023/03/03 15:16:33;;;;;;;29.35;4.13;;;6.60;99.90;;;;;;6222579;22;20777;-89
2023/03/03 15:19:36;;;;;;;26.48;3.70;;;6.60;99.90;;;;;;6249452;22;20051;-89
2023/03/03 15:22:18;;;;;;;21.27;2.75;;;6.60;99.90;;;;;;6221026;22;20335;-86
2023/03/03 15:25:17;;;;;;;27.85;3.65;;;6.70;99.90;;;;;;6225140;22;20051;-89
2023/03/03 15:28:18;;;;;;;24.40;3.67;;;6.70;99.90;;;;;;6250480;22;20022;-86
2023/03/03 15:30:44;;;;;;;25.38;3.50;;;6.80;99.90;;;;;;6107791;23;20082;-86
2023/03/03 15:33:37;;;;;;;34.60;3.65;;;6.80;99.90;;;;;;6125932;23;20017;-86
2023/03/03 15:36:23;;;;;;;24.10;3.60;;;6.70;99.90;;;;;;6100985;23;20028;-86
2023/03/03 15:39:09;;;;;;;26.33;4.15;;;6.60;99.90;;;;;;6100903;23;20559;-87
2023/03/03 15:42:05;;;;;;;30.88;3.95;;;6.60;99.90;;;;;;6091267;23;20050;-87
2023/03/03 15:44:48;;;;;;;31.73;4.47;;;6.50;99.90;;;;;;5984438;23;20019;-86
2023/03/03 15:47:52;;;;;;;36.00;4.82;;;6.60;99.90;;;;;;5956430;23;20225;-86
2023/03/03 15:50:36;;;;;;;25.48;3.55;;;6.50;99.90;;;;;;5959539;23;20023;-87
2023/03/03 15:53:13;;;;;;;25.65;3.60;;;6.60;99.90;;;;;;5958777;23;20140;-88
2023/03/03 15:56:02;;;;;;;38.80;4.70;;;6.60;99.90;;;;;;5958362;23;20024;-88
2023/03/03 15:59:03;;;;;;;42.28;4.03;;;6.50;99.90;;;;;;5897522;24;20495;-85
2023/03/03 16:01:34;;;;;;;30.60;4.65;;;6.50;99.90;;;;;;5916605;24;20049;-88
2023/03/03 16:04:10;;;;;;;38.00;4.30;;;6.60;99.90;;;;;;5899905;24;20057;-87
2023/03/03 16:06:39;;;;;;;28.88;4.13;;;6.60;99.90;;;;;;5902676;24;20415;-88
2023/03/03 16:09:42;;;;;;;29.25;3.55;;;6.50;99.90;;;;;;5953681;24;20095;-84
2023/03/03 16:12:36;;;;;;;29.15;4.05;;;6.60;99.90;;;;;;5951064;24;20900;-84
2023/03/03 16:19:57;;;;;;;;;;;;;;;;;;;;;
2023/03/03 16:23:03;;;;;;;29.73;4.43;;;6.50;99.90;;;;;;5950952;24;20028;-89
2023/03/03 16:29:25;;;;;;;33.22;4.32;;;6.50;99.90;;;;;;5920029;24;20028;-86
2023/03/03 16:32:47;;;;;;;40.33;4.53;;;6.40;99.90;;;;;;5945192;24;20020;-90
2023/03/03 16:35:24;;;;;;;22.08;2.75;;;6.40;99.90;;;;;;5849047;24;20024;-87
2023/03/03 16:38:02;;;;;;;29.67;3.90;;;6.50;99.90;;;;;;5869538;24;20816;-85
2023/03/03 16:40:55;;;;;;;31.35;3.97;;;6.40;99.90;;;;;;5868892;23;20026;-86
2023/03/03 16:43:51;;;;;;;34.03;4.63;;;6.50;99.90;;;;;;5865905;24;20036;-86
2023/03/03 16:46:43;;;;;;;27.88;3.42;;;6.40;99.90;;;;;;5844212;24;20009;-86
2023/03/03 16:49:30;;;;;;;35.50;4.40;;;6.40;99.90;;;;;;5886327;24;20342;-85
2023/03/03 16:56:24;;;;;;;34.78;4.57;;;6.30;99.90;;;;;;5894953;24;20057;-89
2023/03/03 16:58:55;;;;;;;31.60;4.55;;;6.30;99.90;;;;;;5891446;24;20093;-86
2023/03/03 17:02:23;;;;;;;29.55;4.70;;;6.20;99.90;;;;;;5896156;24;20024;-89
2023/03/03 17:10:18;;;;;;;34.92;4.40;;;6.00;99.90;;;;;;5971181;24;20457;-86
2023/03/03 17:13:14;;;;;;;34.58;4.68;;;6.10;99.90;;;;;;6012267;23;20481;-91
2023/03/03 17:16:47;;;;;;;44.60;5.03;;;6.10;99.90;;;;;;6091491;23;20022;-89
2023/03/03 17:23:35;;;;;;;40.90;5.18;;;6.10;99.90;;;;;;6009252;23;20023;-88
2023/03/03 17:27:08;;;;;;;33.20;4.82;;;6.00;99.90;;;;;;6067981;23;20104;-88
2023/03/03 17:30:05;;;;;;;40.83;4.97;;;6.00;99.90;;;;;;6003585;23;20023;-83
2023/03/03 17:32:51;;;;;;;33.70;4.53;;;6.00;99.90;;;;;;6030160;23;20026;-87
2023/03/03 17:35:32;;;;;;;27.42;4.35;;;6.10;99.90;;;;;;5986044;23;20019;-85
2023/03/03 17:38:01;;;;;;;34.35;4.50;;;6.20;99.90;;;;;;5984987;23;20026;-85
2023/03/03 17:41:22;;;;;;;;;;;;;;;;;;;;;
2023/03/03 17:44:00;;;;;;;42.83;4.68;;;5.90;99.90;;;;;;6010735;23;20020;-85
2023/03/03 17:46:46;;;;;;;41.83;5.30;;;6.10;99.90;;;;;;5986778;23;20247;-87
2023/03/03 17:52:50;;;;;;;34.72;4.15;;;6.10;99.90;;;;;;6044793;23;19918;-86
2023/03/03 17:55:47;;;;;;;34.58;4.93;;;6.00;99.90;;;;;;6039221;23;20117;-85
2023/03/03 17:58:34;;;;;;;39.42;5.90;;;6.10;99.90;;;;;;6038122;23;20018;-84
2023/03/03 18:01:06;;;;;;;37.47;4.25;;;5.90;99.90;;;;;;6121663;22;20023;-84
2023/03/03 18:03:45;;;;;;;43.35;5.85;;;6.00;99.90;;;;;;6224170;22;20074;-86
2023/03/03 18:06:20;;;;;;;41.92;5.30;;;5.90;99.90;;;;;;6246063;22;20012;-85
2023/03/03 18:08:57;;;;;;;43.13;5.25;;;6.10;99.90;;;;;;6219477;22;20015;-85